Time,TemperatureF,DewpointF,PressureIn,WindDirection,WindDirectionDegrees,WindSpeedMPH,WindSpeedGustMPH,Humidity,HourlyPrecipIn,Conditions,Clouds,dailyrainin,SoftwareType,DateUTC
2013-03-11 00:03:00,70.3,60.4,29.94,ESE,112,10.3,10.3,64,0.00,,,-99.99,Homeseer,2013-03-11 04:03:00,
2013-03-11 00:13:00,70.2,60.3,29.94,SE,135,7.6,7.6,64,0.00,,,-99.99,Homeseer,2013-03-11 04:13:00,
2013-03-11 00:23:00,70.2,60.3,29.94,East,90,6.7,7.8,64,0.00,,,-99.99,Homeseer,2013-03-11 04:23:00,
2013-03-11 00:33:00,70.2,60.3,29.94,SE,135,6.9,7.8,64,0.00,,,-99.99,Homeseer,2013-03-11 04:33:00,
2013-03-11 00:43:00,70.3,60.7,29.94,South,180,7.2,7.2,65,0.00,,,-99.99,Homeseer,2013-03-11 04:43:00,
2013-03-11 00:53:00,70.2,60.3,29.94,ESE,112,7.8,10.5,64,0.00,,,-99.99,Homeseer,2013-03-11 04:53:00,
2013-03-11 01:03:00,70.2,60.6,29.94,East,90,11.4,11.4,65,0.00,,,-99.99,Homeseer,2013-03-11 05:03:00,
2013-03-11 01:13:00,70.2,60.6,29.94,ESE,112,9.6,9.6,65,0.00,,,-99.99,Homeseer,2013-03-11 05:13:00,
2013-03-11 01:23:00,70.2,61.0,29.94,SSE,157,7.4,7.4,66,0.00,,,-99.99,Homeseer,2013-03-11 05:23:00,
2013-03-11 01:33:00,70.2,60.6,29.94,SE,135,7.6,8.5,65,0.00,,,-99.99,Homeseer,2013-03-11 05:33:00,
2013-03-11 01:43:00,70.2,61.0,29.94,SSE,157,10.1,10.1,66,0.00,,,-99.99,Homeseer,2013-03-11 05:43:00,
2013-03-11 01:53:00,70.2,58.6,29.94,North,0,6.3,7.4,59,0.00,,,-99.99,Homeseer,2013-03-11 05:53:00,
2013-03-11 02:03:00,70.2,58.2,29.91,South,180,6.9,6.9,58,0.00,,,-99.99,Homeseer,2013-03-11 06:03:00,
2013-03-11 02:13:00,70.2,58.2,29.91,SE,135,6.0,7.6,58,0.00,,,-99.99,Homeseer,2013-03-11 06:13:00,
2013-03-11 02:23:00,70.2,58.6,29.91,ESE,112,6.9,7.8,59,0.00,,,-99.99,Homeseer,2013-03-11 06:23:00,
2013-03-11 02:33:00,70.2,58.2,29.91,SSE,157,10.1,10.1,58,0.00,,,-99.99,Homeseer,2013-03-11 06:33:00,
2013-03-11 02:43:00,70.3,58.3,29.91,ESE,112,7.4,7.4,58,0.00,,,-99.99,Homeseer,2013-03-11 06:43:00,
2013-03-11 02:53:00,70.3,58.7,29.91,SSE,157,7.2,7.2,59,0.00,,,-99.99,Homeseer,2013-03-11 06:53:00,
2013-03-11 03:03:00,70.2,58.6,29.88,ESE,112,6.3,6.3,59,0.00,,,-99.99,Homeseer,2013-03-11 07:03:00,
2013-03-11 03:13:00,70.2,57.5,29.88,SSE,157,7.2,7.2,56,0.00,,,-99.99,Homeseer,2013-03-11 07:13:00,
2013-03-11 03:23:00,70.2,57.5,29.88,ESE,112,6.9,6.9,56,0.00,,,-99.99,Homeseer,2013-03-11 07:23:00,
2013-03-11 03:33:00,70.2,55.9,29.88,North,0,7.2,8.1,52,0.00,,,-99.99,Homeseer,2013-03-11 07:33:00,
2013-03-11 03:43:00,70.2,55.1,29.88,SSE,157,7.2,7.2,50,0.00,,,-99.99,Homeseer,2013-03-11 07:43:00,
2013-03-11 03:53:00,70.2,55.5,29.88,North,0,6.7,6.7,51,0.00,,,-99.99,Homeseer,2013-03-11 07:53:00,
2013-03-11 04:03:00,70.2,55.5,29.88,SSE,157,7.4,7.4,51,0.00,,,-99.99,Homeseer,2013-03-11 08:03:00,
2013-03-11 04:13:00,70.2,56.3,29.88,SE,135,7.8,10.5,53,0.00,,,-99.99,Homeseer,2013-03-11 08:13:00,
2013-03-11 04:23:00,70.2,56.3,29.88,ESE,112,8.5,8.5,53,0.00,,,-99.99,Homeseer,2013-03-11 08:23:00,
2013-03-11 04:33:00,70.2,55.5,29.88,North,0,7.4,7.4,51,0.00,,,-99.99,Homeseer,2013-03-11 08:33:00,
2013-03-11 04:43:00,70.2,55.5,29.88,SE,135,6.7,6.7,51,0.00,,,-99.99,Homeseer,2013-03-11 08:43:00,
2013-03-11 04:53:00,70.3,55.6,29.88,ESE,112,7.6,11.4,51,0.00,,,-99.99,Homeseer,2013-03-11 08:53:00,
2013-03-11 05:03:00,70.3,56.8,29.85,North,0,9.0,9.0,54,0.00,,,-99.99,Homeseer,2013-03-11 09:03:00,
2013-03-11 05:13:00,70.3,56.4,29.88,East,90,7.6,10.3,53,0.00,,,-99.99,Homeseer,2013-03-11 09:13:00,
2013-03-11 05:23:00,70.3,57.2,29.88,SSE,157,5.6,8.5,55,0.00,,,-99.99,Homeseer,2013-03-11 09:23:00,
2013-03-11 05:33:00,70.3,57.5,29.85,ESE,112,4.3,4.3,56,0.00,,,-99.99,Homeseer,2013-03-11 09:33:00,
2013-03-11 05:43:00,69.4,58.2,29.85,SSE,157,6.5,6.5,60,0.00,,,-99.99,Homeseer,2013-03-11 09:43:00,
2013-03-11 05:53:00,69.8,58.5,29.85,North,0,5.8,9.6,60,0.00,,,-99.99,Homeseer,2013-03-11 09:53:00,
2013-03-11 06:03:00,69.4,58.2,29.85,SSE,157,5.4,6.0,60,0.00,,,-99.99,Homeseer,2013-03-11 10:03:00,
2013-03-11 06:13:00,69.8,57.8,29.85,ESE,112,7.2,7.2,58,0.00,,,-99.99,Homeseer,2013-03-11 10:13:00,
2013-03-11 06:23:00,69.6,56.9,29.85,North,0,6.9,6.9,56,0.00,,,-99.99,Homeseer,2013-03-11 10:23:00,
2013-03-11 06:33:00,69.6,56.9,29.85,SSE,157,7.2,7.2,56,0.00,,,-99.99,Homeseer,2013-03-11 10:33:00,
2013-03-11 06:43:00,69.6,56.9,29.85,ESE,112,5.8,5.8,56,0.00,,,-99.99,Homeseer,2013-03-11 10:43:00,
2013-03-11 06:53:00,69.6,55.7,29.85,SE,135,5.8,5.8,53,0.00,,,-99.99,Homeseer,2013-03-11 10:53:00,
2013-03-11 07:03:00,69.6,54.5,29.85,SSE,157,4.9,4.9,50,0.00,,,-99.99,Homeseer,2013-03-11 11:03:00,
2013-03-11 07:13:00,69.6,55.4,29.88,SE,135,4.9,4.9,52,0.00,,,-99.99,Homeseer,2013-03-11 11:13:00,
2013-03-11 07:23:00,69.8,56.3,29.88,North,0,6.0,6.9,54,0.00,,,-99.99,Homeseer,2013-03-11 11:23:00,
2013-03-11 07:33:00,69.8,56.3,29.88,SSE,157,5.4,10.1,54,0.00,,,-99.99,Homeseer,2013-03-11 11:33:00,
2013-03-11 07:43:00,70.0,56.5,29.88,SE,135,6.3,7.8,54,0.00,,,-99.99,Homeseer,2013-03-11 11:43:00,
2013-03-11 07:53:00,70.0,54.9,29.88,SSE,157,4.7,4.7,50,0.00,,,-99.99,Homeseer,2013-03-11 11:53:00,
2013-03-11 08:03:00,70.2,55.1,29.88,SSE,157,3.4,6.0,50,0.00,,,-99.99,Homeseer,2013-03-11 12:03:00,
2013-03-11 08:13:00,70.2,55.1,29.88,SSE,157,4.7,4.7,50,0.00,,,-99.99,Homeseer,2013-03-11 12:13:00,
2013-03-11 08:23:00,70.2,55.5,29.88,North,0,4.3,4.3,51,0.00,,,-99.99,Homeseer,2013-03-11 12:23:00,
2013-03-11 08:33:00,70.3,54.8,29.88,SSE,157,6.3,6.3,49,0.00,,,-99.99,Homeseer,2013-03-11 12:33:00,
2013-03-11 08:43:00,70.7,55.1,29.88,South,180,6.7,6.7,49,0.00,,,-99.99,Homeseer,2013-03-11 12:43:00,
2013-03-11 08:53:00,70.7,55.5,29.88,North,0,5.8,5.8,50,0.00,,,-99.99,Homeseer,2013-03-11 12:53:00,
2013-03-11 09:03:00,70.7,55.5,29.88,South,180,2.7,3.4,50,0.00,,,-99.99,Homeseer,2013-03-11 13:03:00,
2013-03-11 09:13:00,71.4,56.2,29.91,ESE,112,4.5,5.8,50,0.00,,,-99.99,Homeseer,2013-03-11 13:13:00,
2013-03-11 09:23:00,71.8,56.9,29.91,ESE,112,4.7,4.7,51,0.00,,,-99.99,Homeseer,2013-03-11 13:23:00,
2013-03-11 09:33:00,72.0,55.0,29.91,SSE,157,5.4,5.4,46,0.00,,,-99.99,Homeseer,2013-03-11 13:33:00,
2013-03-11 09:43:00,72.7,55.6,29.91,South,180,3.1,4.0,46,0.00,,,-99.99,Homeseer,2013-03-11 13:43:00,
2013-03-11 09:53:00,72.7,55.1,29.91,SSE,157,5.6,7.8,45,0.00,,,-99.99,Homeseer,2013-03-11 13:53:00,
2013-03-11 10:03:00,73.0,54.9,29.91,SE,135,7.8,7.8,44,0.00,,,-99.99,Homeseer,2013-03-11 14:03:00,
2013-03-11 10:13:00,72.9,55.3,29.91,North,0,4.7,8.1,45,0.00,,,-99.99,Homeseer,2013-03-11 14:13:00,
2013-03-11 10:23:00,73.6,55.5,29.91,ESE,112,5.4,7.4,44,0.00,,,-99.99,Homeseer,2013-03-11 14:23:00,
2013-03-11 10:33:00,73.4,55.8,29.91,North,0,4.5,4.5,45,0.00,,,-99.99,Homeseer,2013-03-11 14:33:00,
2013-03-11 10:43:00,73.4,55.8,29.91,South,180,4.9,7.8,45,0.00,,,-99.99,Homeseer,2013-03-11 14:43:00,
2013-03-11 10:53:00,73.4,54.8,29.91,North,0,7.4,7.4,43,0.00,,,-99.99,Homeseer,2013-03-11 14:53:00,
2013-03-11 11:03:00,73.8,54.7,29.91,SSE,157,4.7,4.7,42,0.00,,,-99.99,Homeseer,2013-03-11 15:03:00,
2013-03-11 11:13:00,74.8,55.6,29.91,SSE,157,4.5,8.1,42,0.00,,,-99.99,Homeseer,2013-03-11 15:13:00,
2013-03-11 11:23:00,75.0,55.2,29.91,SSE,157,5.6,5.6,41,0.00,,,-99.99,Homeseer,2013-03-11 15:23:00,
2013-03-11 11:33:00,75.7,55.9,29.91,South,180,4.5,4.5,41,0.00,,,-99.99,Homeseer,2013-03-11 15:33:00,
2013-03-11 11:43:00,75.9,55.0,29.91,SE,135,8.1,8.1,39,0.00,,,-99.99,Homeseer,2013-03-11 15:43:00,
2013-03-11 11:53:00,76.3,55.9,29.91,North,0,6.9,6.9,40,0.00,,,-99.99,Homeseer,2013-03-11 15:53:00,
2013-03-11 12:03:00,76.5,56.6,29.91,SE,135,4.5,4.5,41,0.00,,,-99.99,Homeseer,2013-03-11 16:03:00,
2013-03-11 12:13:00,76.1,56.2,29.91,SSE,157,4.7,6.3,41,0.00,,,-99.99,Homeseer,2013-03-11 16:13:00,
2013-03-11 12:23:00,75.9,55.0,29.91,ESE,112,4.7,7.2,39,0.00,,,-99.99,Homeseer,2013-03-11 16:23:00,
2013-03-11 12:33:00,76.3,55.3,29.88,East,90,6.3,6.3,39,0.00,,,-99.99,Homeseer,2013-03-11 16:33:00,
2013-03-11 12:43:00,76.3,55.9,29.88,SSE,157,3.8,3.8,40,0.00,,,-99.99,Homeseer,2013-03-11 16:43:00,
2013-03-11 12:53:00,76.3,55.9,29.88,ESE,112,4.3,4.3,40,0.00,,,-99.99,Homeseer,2013-03-11 16:53:00,
2013-03-11 13:03:00,77.2,55.6,29.88,South,180,5.8,5.8,38,0.00,,,-99.99,Homeseer,2013-03-11 17:03:00,
2013-03-11 13:13:00,77.0,55.4,29.88,SSE,157,4.9,6.3,38,0.00,,,-99.99,Homeseer,2013-03-11 17:13:00,
2013-03-11 13:23:00,76.8,55.8,29.88,West,270,4.9,4.9,39,0.00,,,-99.99,Homeseer,2013-03-11 17:23:00,
2013-03-11 13:33:00,76.3,56.4,29.88,ESE,112,7.2,7.2,41,0.00,,,-99.99,Homeseer,2013-03-11 17:33:00,
2013-03-11 13:43:00,76.1,56.2,29.85,SE,135,4.0,4.0,41,0.00,,,-99.99,Homeseer,2013-03-11 17:43:00,
2013-03-11 13:53:00,77.7,57.1,29.85,South,180,6.0,6.0,40,0.00,,,-99.99,Homeseer,2013-03-11 17:53:00,
2013-03-11 14:03:00,77.9,57.8,29.85,SE,135,4.3,5.4,41,0.00,,,-99.99,Homeseer,2013-03-11 18:03:00,
2013-03-11 14:13:00,77.7,57.1,29.85,North,0,3.1,8.1,40,0.00,,,-99.99,Homeseer,2013-03-11 18:13:00,
2013-03-11 14:23:00,77.5,57.4,29.85,North,0,4.0,4.0,41,0.00,,,-99.99,Homeseer,2013-03-11 18:23:00,
2013-03-11 14:33:00,78.3,57.6,29.85,ESE,112,3.6,5.4,40,0.00,,,-99.99,Homeseer,2013-03-11 18:33:00,
2013-03-11 14:43:00,77.9,56.7,29.85,East,90,5.6,9.8,39,0.00,,,-99.99,Homeseer,2013-03-11 18:43:00,
2013-03-11 14:53:00,77.5,56.9,29.85,SSE,157,4.3,4.3,40,0.00,,,-99.99,Homeseer,2013-03-11 18:53:00,
2013-03-11 15:03:00,78.4,57.7,29.85,SSE,157,4.0,6.0,40,0.00,,,-99.99,Homeseer,2013-03-11 19:03:00,
2013-03-11 15:13:00,77.4,57.4,29.85,North,0,3.1,3.1,41,0.00,,,-99.99,Homeseer,2013-03-11 19:13:00,
2013-03-11 15:23:00,77.0,57.0,29.85,South,180,4.0,4.0,41,0.00,,,-99.99,Homeseer,2013-03-11 19:23:00,
2013-03-11 15:33:00,78.1,58.0,29.85,SW,225,4.5,4.5,41,0.00,,,-99.99,Homeseer,2013-03-11 19:33:00,
2013-03-11 15:43:00,78.1,57.4,29.85,ESE,112,2.9,7.2,40,0.00,,,-99.99,Homeseer,2013-03-11 19:43:00,
2013-03-11 15:53:00,78.3,57.1,29.85,South,180,4.0,4.0,39,0.00,,,-99.99,Homeseer,2013-03-11 19:53:00,
2013-03-11 16:03:00,77.7,57.1,29.85,SSE,157,4.7,4.9,40,0.00,,,-99.99,Homeseer,2013-03-11 20:03:00,
2013-03-11 16:13:00,77.5,56.9,29.85,SE,135,4.7,5.6,40,0.00,,,-99.99,Homeseer,2013-03-11 20:13:00,
2013-03-11 16:23:00,78.4,58.2,29.85,ESE,112,3.4,3.4,41,0.00,,,-99.99,Homeseer,2013-03-11 20:23:00,
2013-03-11 16:33:00,78.1,58.0,29.85,North,0,1.6,4.9,41,0.00,,,-99.99,Homeseer,2013-03-11 20:33:00,
2013-03-11 16:43:00,77.4,57.9,29.85,SSE,157,2.7,2.9,42,0.00,,,-99.99,Homeseer,2013-03-11 20:43:00,
2013-03-11 16:53:00,76.8,57.3,29.85,North,0,3.4,3.4,42,0.00,,,-99.99,Homeseer,2013-03-11 20:53:00,
2013-03-11 17:03:00,77.4,58.4,29.85,SSE,157,4.0,4.0,43,0.00,,,-99.99,Homeseer,2013-03-11 21:03:00,
2013-03-11 17:13:00,77.0,58.0,29.83,SE,135,4.7,6.0,43,0.00,,,-99.99,Homeseer,2013-03-11 21:13:00,
2013-03-11 17:23:00,76.3,57.4,29.83,North,0,4.5,6.3,43,0.00,,,-99.99,Homeseer,2013-03-11 21:23:00,
2013-03-11 17:33:00,75.7,57.3,29.83,SSE,157,3.1,4.3,44,0.00,,,-99.99,Homeseer,2013-03-11 21:33:00,
2013-03-11 17:43:00,75.4,57.5,29.83,SW,225,3.8,4.3,45,0.00,,,-99.99,Homeseer,2013-03-11 21:43:00,
2013-03-11 17:53:00,74.7,57.8,29.83,SSE,157,5.4,5.4,47,0.00,,,-99.99,Homeseer,2013-03-11 21:53:00,
2013-03-11 18:03:00,74.8,57.9,29.83,South,180,4.0,4.9,47,0.00,,,-99.99,Homeseer,2013-03-11 22:03:00,
2013-03-11 18:13:00,75.0,58.1,29.83,South,180,4.0,4.0,47,0.00,,,-99.99,Homeseer,2013-03-11 22:13:00,
2013-03-11 18:23:00,74.7,57.8,29.83,ESE,112,6.0,6.0,47,0.00,,,-99.99,Homeseer,2013-03-11 22:23:00,
2013-03-11 18:33:00,74.1,57.7,29.80,North,0,6.7,6.7,48,0.00,,,-99.99,Homeseer,2013-03-11 22:33:00,
2013-03-11 18:43:00,73.9,57.6,29.80,South,180,3.8,6.0,48,0.00,,,-99.99,Homeseer,2013-03-11 22:43:00,
2013-03-11 18:53:00,73.6,57.3,29.80,South,180,3.6,4.9,48,0.00,,,-99.99,Homeseer,2013-03-11 22:53:00,
2013-03-11 19:03:00,73.2,57.4,29.80,North,0,7.4,7.4,49,0.00,,,-99.99,Homeseer,2013-03-11 23:03:00,
2013-03-11 19:13:00,73.0,58.0,29.80,SSE,157,3.8,5.6,51,0.00,,,-99.99,Homeseer,2013-03-11 23:13:00,
2013-03-11 19:23:00,72.9,58.8,29.80,SE,135,2.0,2.5,53,0.00,,,-99.99,Homeseer,2013-03-11 23:23:00,
2013-03-11 19:33:00,72.7,58.6,29.83,SW,225,4.0,4.5,53,0.00,,,-99.99,Homeseer,2013-03-11 23:33:00,
2013-03-11 19:43:00,72.5,58.8,29.83,North,0,3.4,5.8,54,0.00,,,-99.99,Homeseer,2013-03-11 23:43:00,
2013-03-11 19:53:00,72.3,58.6,29.83,SSE,157,4.7,4.7,54,0.00,,,-99.99,Homeseer,2013-03-11 23:53:00,
2013-03-11 20:03:00,72.3,58.2,29.83,ESE,112,5.8,5.8,53,0.00,,,-99.99,Homeseer,2013-03-12 00:03:00,
2013-03-11 20:13:00,72.3,58.6,29.83,WSW,247,1.6,0.0,54,0.00,,,-99.99,Homeseer,2013-03-12 00:13:00,
2013-03-11 20:23:00,72.3,58.6,29.83,North,0,2.7,3.4,54,0.00,,,-99.99,Homeseer,2013-03-12 00:23:00,
2013-03-11 20:33:00,72.3,58.2,29.83,ESE,112,4.9,4.9,53,0.00,,,-99.99,Homeseer,2013-03-12 00:33:00,
2013-03-11 20:43:00,72.3,58.2,29.83,South,180,2.2,2.2,53,0.00,,,-99.99,Homeseer,2013-03-12 00:43:00,
2013-03-11 20:53:00,72.3,58.6,29.83,SSE,157,2.7,3.1,54,0.00,,,-99.99,Homeseer,2013-03-12 00:53:00,
2013-03-11 21:03:00,72.3,58.6,29.83,SSE,157,2.0,3.8,54,0.00,,,-99.99,Homeseer,2013-03-12 01:03:00,
2013-03-11 21:13:00,72.3,59.4,29.83,South,180,3.6,3.6,56,0.00,,,-99.99,Homeseer,2013-03-12 01:13:00,
2013-03-11 21:23:00,72.1,59.2,29.83,South,180,0.0,2.7,56,0.00,,,-99.99,Homeseer,2013-03-12 01:23:00,
2013-03-11 21:33:00,72.1,59.2,29.85,SSE,157,2.9,3.4,56,0.00,,,-99.99,Homeseer,2013-03-12 01:33:00,
2013-03-11 21:43:00,72.1,59.6,29.85,SE,135,2.2,3.8,57,0.00,,,-99.99,Homeseer,2013-03-12 01:43:00,
2013-03-11 21:53:00,72.1,60.0,29.85,SSE,157,3.6,3.6,58,0.00,,,-99.99,Homeseer,2013-03-12 01:53:00,
2013-03-11 22:03:00,72.1,60.0,29.85,South,180,4.7,5.6,58,0.00,,,-99.99,Homeseer,2013-03-12 02:03:00,
2013-03-11 22:09:00,72.0,59.9,29.85,South,180,3.4,6.5,58,0.00,,,-99.99,Homeseer,2013-03-12 02:09:00,
2013-03-11 22:19:00,72.0,59.5,29.85,North,0,3.8,3.8,57,0.00,,,-99.99,Homeseer,2013-03-12 02:19:00,
2013-03-11 22:29:00,72.1,60.0,29.85,South,180,2.9,3.6,58,0.00,,,-99.99,Homeseer,2013-03-12 02:29:00,
2013-03-11 22:39:00,72.0,59.5,29.85,South,180,2.2,3.1,57,0.00,,,-99.99,Homeseer,2013-03-12 02:39:00,
2013-03-11 22:49:00,71.8,59.7,29.85,SSE,157,3.1,3.1,58,0.00,,,-99.99,Homeseer,2013-03-12 02:49:00,
2013-03-11 22:59:00,71.8,59.7,29.85,SSE,157,4.5,4.5,58,0.00,,,-99.99,Homeseer,2013-03-12 02:59:00,
2013-03-11 23:09:00,71.8,59.7,29.85,North,0,6.0,6.0,58,0.00,,,-99.99,Homeseer,2013-03-12 03:09:00,
2013-03-11 23:19:00,71.6,59.1,29.85,ESE,112,4.7,6.5,57,0.00,,,-99.99,Homeseer,2013-03-12 03:19:00,
2013-03-11 23:29:00,71.6,59.5,29.85,SE,135,3.1,5.4,58,0.00,,,-99.99,Homeseer,2013-03-12 03:29:00,
2013-03-11 23:39:00,71.6,58.7,29.85,ESE,112,5.8,5.8,56,0.00,,,-99.99,Homeseer,2013-03-12 03:39:00,
2013-03-11 23:49:00,71.6,59.1,29.85,South,180,5.4,5.4,57,0.00,,,-99.99,Homeseer,2013-03-12 03:49:00,
2013-03-11 23:59:00,71.6,60.2,29.85,SSE,157,5.4,5.8,60,0.00,,,-99.99,Homeseer,2013-03-12 03:59:00,